sensor_id;sensor_type;location;lat;lon;timestamp;P1;durP1;ratioP1;P2;durP2;ratioP2
47778;SDS011;33538;48.432;11.350;2023-04-25T00:01:18;2.88;;;1.65;;
47778;SDS011;33538;48.432;11.350;2023-04-25T00:03:44;2.88;;;1.85;;
47778;SDS011;33538;48.432;11.350;2023-04-25T00:06:12;5.55;;;2.20;;
47778;SDS011;33538;48.432;11.350;2023-04-25T00:08:38;1.92;;;1.63;;
47778;SDS011;33538;48.432;11.350;2023-04-25T00:11:05;3.08;;;1.58;;
47778;SDS011;33538;48.432;11.350;2023-04-25T00:13:32;1.92;;;1.60;;
47778;SDS011;33538;48.432;11.350;2023-04-25T00:16:00;3.70;;;2.30;;
47778;SDS011;33538;48.432;11.350;2023-04-25T00:18:27;2.83;;;1.85;;
47778;SDS011;33538;48.432;11.350;2023-04-25T00:20:54;2.53;;;1.77;;
47778;SDS011;33538;48.432;11.350;2023-04-25T00:23:21;2.65;;;1.73;;
47778;SDS011;33538;48.432;11.350;2023-04-25T00:25:48;2.17;;;1.50;;
47778;SDS011;33538;48.432;11.350;2023-04-25T00:28:16;2.47;;;1.60;;
47778;SDS011;33538;48.432;11.350;2023-04-25T00:30:43;3.03;;;1.77;;
47778;SDS011;33538;48.432;11.350;2023-04-25T00:33:11;2.60;;;1.88;;
47778;SDS011;33538;48.432;11.350;2023-04-25T00:35:38;1.85;;;1.50;;
47778;SDS011;33538;48.432;11.350;2023-04-25T00:38:04;3.58;;;1.90;;
47778;SDS011;33538;48.432;11.350;2023-04-25T00:40:31;2.28;;;1.77;;
47778;SDS011;33538;48.432;11.350;2023-04-25T00:42:58;2.67;;;1.70;;
47778;SDS011;33538;48.432;11.350;2023-04-25T00:45:27;2.15;;;1.45;;
47778;SDS011;33538;48.432;11.350;2023-04-25T00:47:55;3.53;;;1.90;;
47778;SDS011;33538;48.432;11.350;2023-04-25T00:50:23;3.05;;;1.65;;
47778;SDS011;33538;48.432;11.350;2023-04-25T00:52:50;2.78;;;2.00;;
47778;SDS011;33538;48.432;11.350;2023-04-25T00:55:18;4.07;;;2.35;;
47778;SDS011;33538;48.432;11.350;2023-04-25T00:57:45;2.38;;;1.60;;
47778;SDS011;33538;48.432;11.350;2023-04-25T01:00:12;2.58;;;1.80;;
47778;SDS011;33538;48.432;11.350;2023-04-25T01:02:39;2.63;;;1.90;;
47778;SDS011;33538;48.432;11.350;2023-04-25T01:05:07;4.32;;;2.00;;
47778;SDS011;33538;48.432;11.350;2023-04-25T01:07:35;2.85;;;2.20;;
47778;SDS011;33538;48.432;11.350;2023-04-25T01:10:03;4.55;;;1.98;;
47778;SDS011;33538;48.432;11.350;2023-04-25T01:12:31;2.83;;;2.10;;
47778;SDS011;33538;48.432;11.350;2023-04-25T01:14:57;5.78;;;1.80;;
47778;SDS011;33538;48.432;11.350;2023-04-25T01:17:24;3.85;;;2.00;;
47778;SDS011;33538;48.432;11.350;2023-04-25T01:19:51;4.55;;;1.92;;
47778;SDS011;33538;48.432;11.350;2023-04-25T01:22:19;3.22;;;2.00;;
47778;SDS011;33538;48.432;11.350;2023-04-25T01:24:46;2.70;;;2.10;;
47778;SDS011;33538;48.432;11.350;2023-04-25T01:27:13;2.60;;;1.90;;
47778;SDS011;33538;48.432;11.350;2023-04-25T01:29:40;2.97;;;1.75;;
47778;SDS011;33538;48.432;11.350;2023-04-25T01:32:08;3.85;;;2.08;;
47778;SDS011;33538;48.432;11.350;2023-04-25T01:34:35;3.00;;;2.10;;
47778;SDS011;33538;48.432;11.350;2023-04-25T01:37:02;3.97;;;2.25;;
47778;SDS011;33538;48.432;11.350;2023-04-25T01:39:30;3.08;;;2.03;;
47778;SDS011;33538;48.432;11.350;2023-04-25T01:41:58;3.28;;;2.05;;
47778;SDS011;33538;48.432;11.350;2023-04-25T01:44:26;2.50;;;1.90;;
47778;SDS011;33538;48.432;11.350;2023-04-25T01:46:53;7.03;;;2.20;;
47778;SDS011;33538;48.432;11.350;2023-04-25T01:49:20;2.80;;;2.13;;
47778;SDS011;33538;48.432;11.350;2023-04-25T01:51:47;4.38;;;2.28;;
47778;SDS011;33538;48.432;11.350;2023-04-25T01:54:14;5.40;;;2.63;;
47778;SDS011;33538;48.432;11.350;2023-04-25T01:56:42;3.45;;;2.47;;
47778;SDS011;33538;48.432;11.350;2023-04-25T01:59:10;3.17;;;2.15;;
47778;SDS011;33538;48.432;11.350;2023-04-25T02:01:37;2.78;;;1.83;;
47778;SDS011;33538;48.432;11.350;2023-04-25T02:04:04;4.15;;;2.00;;
47778;SDS011;33538;48.432;11.350;2023-04-25T02:06:31;4.32;;;1.63;;
47778;SDS011;33538;48.432;11.350;2023-04-25T02:08:58;6.43;;;2.10;;
47778;SDS011;33538;48.432;11.350;2023-04-25T02:11:25;4.03;;;1.95;;
47778;SDS011;33538;48.432;11.350;2023-04-25T02:13:53;4.78;;;2.20;;
47778;SDS011;33538;48.432;11.350;2023-04-25T02:16:20;6.50;;;2.38;;
47778;SDS011;33538;48.432;11.350;2023-04-25T02:18:47;2.42;;;1.75;;
47778;SDS011;33538;48.432;11.350;2023-04-25T02:21:14;4.65;;;1.88;;
47778;SDS011;33538;48.432;11.350;2023-04-25T02:23:40;3.65;;;2.10;;
47778;SDS011;33538;48.432;11.350;2023-04-25T02:26:07;3.38;;;1.92;;
47778;SDS011;33538;48.432;11.350;2023-04-25T02:28:34;3.00;;;1.90;;
47778;SDS011;33538;48.432;11.350;2023-04-25T02:31:02;4.53;;;2.17;;
47778;SDS011;33538;48.432;11.350;2023-04-25T02:33:29;3.47;;;1.92;;
47778;SDS011;33538;48.432;11.350;2023-04-25T02:35:56;3.67;;;1.77;;
47778;SDS011;33538;48.432;11.350;2023-04-25T02:38:22;2.70;;;2.17;;
47778;SDS011;33538;48.432;11.350;2023-04-25T02:40:49;5.40;;;2.58;;
47778;SDS011;33538;48.432;11.350;2023-04-25T02:43:16;3.65;;;2.20;;
47778;SDS011;33538;48.432;11.350;2023-04-25T02:45:43;3.13;;;2.03;;
47778;SDS011;33538;48.432;11.350;2023-04-25T02:48:11;3.38;;;2.03;;
47778;SDS011;33538;48.432;11.350;2023-04-25T02:50:38;3.72;;;2.10;;
47778;SDS011;33538;48.432;11.350;2023-04-25T02:53:04;2.53;;;2.00;;
47778;SDS011;33538;48.432;11.350;2023-04-25T02:55:31;3.83;;;2.13;;
47778;SDS011;33538;48.432;11.350;2023-04-25T02:57:58;4.70;;;2.28;;
47778;SDS011;33538;48.432;11.350;2023-04-25T03:00:25;2.85;;;2.15;;
47778;SDS011;33538;48.432;11.350;2023-04-25T03:02:51;3.95;;;2.05;;
47778;SDS011;33538;48.432;11.350;2023-04-25T03:05:20;3.88;;;1.60;;
47778;SDS011;33538;48.432;11.350;2023-04-25T03:07:46;4.07;;;1.75;;
47778;SDS011;33538;48.432;11.350;2023-04-25T03:10:13;3.65;;;2.22;;
47778;SDS011;33538;48.432;11.350;2023-04-25T03:12:40;2.50;;;1.90;;
47778;SDS011;33538;48.432;11.350;2023-04-25T03:15:07;2.97;;;2.08;;
47778;SDS011;33538;48.432;11.350;2023-04-25T03:17:34;2.88;;;2.17;;
47778;SDS011;33538;48.432;11.350;2023-04-25T03:20:01;3.05;;;1.95;;
47778;SDS011;33538;48.432;11.350;2023-04-25T03:22:29;3.42;;;2.58;;
47778;SDS011;33538;48.432;11.350;2023-04-25T03:24:56;4.70;;;2.05;;
47778;SDS011;33538;48.432;11.350;2023-04-25T03:27:22;4.93;;;2.33;;
47778;SDS011;33538;48.432;11.350;2023-04-25T03:29:49;3.13;;;2.13;;
47778;SDS011;33538;48.432;11.350;2023-04-25T03:32:16;3.47;;;2.00;;
47778;SDS011;33538;48.432;11.350;2023-04-25T03:34:42;3.05;;;2.05;;
47778;SDS011;33538;48.432;11.350;2023-04-25T03:37:09;2.65;;;1.77;;
47778;SDS011;33538;48.432;11.350;2023-04-25T03:39:37;5.65;;;2.17;;
47778;SDS011;33538;48.432;11.350;2023-04-25T03:42:04;2.92;;;2.08;;
47778;SDS011;33538;48.432;11.350;2023-04-25T03:44:31;3.22;;;2.05;;
47778;SDS011;33538;48.432;11.350;2023-04-25T03:46:58;4.03;;;1.88;;
47778;SDS011;33538;48.432;11.350;2023-04-25T03:49:24;3.20;;;1.85;;
47778;SDS011;33538;48.432;11.350;2023-04-25T03:51:51;5.03;;;2.38;;
47778;SDS011;33538;48.432;11.350;2023-04-25T03:54:18;2.78;;;1.98;;
47778;SDS011;33538;48.432;11.350;2023-04-25T03:56:46;2.55;;;2.10;;
47778;SDS011;33538;48.432;11.350;2023-04-25T03:59:13;2.40;;;1.75;;
47778;SDS011;33538;48.432;11.350;2023-04-25T04:01:39;3.53;;;1.80;;
47778;SDS011;33538;48.432;11.350;2023-04-25T04:04:06;3.63;;;1.95;;
47778;SDS011;33538;48.432;11.350;2023-04-25T04:06:33;3.13;;;2.20;;
47778;SDS011;33538;48.432;11.350;2023-04-25T04:09:00;3.42;;;1.85;;
47778;SDS011;33538;48.432;11.350;2023-04-25T04:11:27;3.20;;;2.17;;
47778;SDS011;33538;48.432;11.350;2023-04-25T04:13:55;2.63;;;2.05;;
47778;SDS011;33538;48.432;11.350;2023-04-25T04:16:22;2.97;;;2.10;;
47778;SDS011;33538;48.432;11.350;2023-04-25T04:18:49;2.97;;;1.77;;
47778;SDS011;33538;48.432;11.350;2023-04-25T04:21:15;2.80;;;1.98;;
47778;SDS011;33538;48.432;11.350;2023-04-25T04:23:42;4.00;;;2.45;;
47778;SDS011;33538;48.432;11.350;2023-04-25T04:26:09;2.60;;;2.05;;
47778;SDS011;33538;48.432;11.350;2023-04-25T04:28:36;3.90;;;2.20;;
47778;SDS011;33538;48.432;11.350;2023-04-25T04:31:04;3.00;;;2.10;;
47778;SDS011;33538;48.432;11.350;2023-04-25T04:33:31;3.05;;;1.90;;
47778;SDS011;33538;48.432;11.350;2023-04-25T04:35:57;5.30;;;2.03;;
47778;SDS011;33538;48.432;11.350;2023-04-25T04:38:24;5.63;;;2.10;;
47778;SDS011;33538;48.432;11.350;2023-04-25T04:40:51;3.40;;;2.20;;
47778;SDS011;33538;48.432;11.350;2023-04-25T04:43:18;3.78;;;2.42;;
47778;SDS011;33538;48.432;11.350;2023-04-25T04:45:44;3.83;;;2.30;;
47778;SDS011;33538;48.432;11.350;2023-04-25T04:48:12;2.95;;;1.90;;
47778;SDS011;33538;48.432;11.350;2023-04-25T04:50:39;6.05;;;2.25;;
47778;SDS011;33538;48.432;11.350;2023-04-25T04:53:06;5.15;;;2.30;;
47778;SDS011;33538;48.432;11.350;2023-04-25T04:55:33;4.03;;;2.13;;
47778;SDS011;33538;48.432;11.350;2023-04-25T04:58:00;5.07;;;2.30;;
47778;SDS011;33538;48.432;11.350;2023-04-25T05:00:27;2.92;;;1.80;;
47778;SDS011;33538;48.432;11.350;2023-04-25T05:02:55;2.80;;;2.05;;
47778;SDS011;33538;48.432;11.350;2023-04-25T05:05:23;2.53;;;1.85;;
47778;SDS011;33538;48.432;11.350;2023-04-25T05:07:50;3.17;;;2.05;;
47778;SDS011;33538;48.432;11.350;2023-04-25T05:10:17;3.92;;;2.17;;
47778;SDS011;33538;48.432;11.350;2023-04-25T05:12:45;3.53;;;1.88;;
47778;SDS011;33538;48.432;11.350;2023-04-25T05:15:11;3.42;;;1.80;;
47778;SDS011;33538;48.432;11.350;2023-04-25T05:17:38;3.85;;;2.17;;
47778;SDS011;33538;48.432;11.350;2023-04-25T05:20:06;3.70;;;1.70;;
47778;SDS011;33538;48.432;11.350;2023-04-25T05:22:34;2.88;;;1.83;;
47778;SDS011;33538;48.432;11.350;2023-04-25T05:25:01;3.03;;;1.92;;
47778;SDS011;33538;48.432;11.350;2023-04-25T05:27:28;3.00;;;1.90;;
47778;SDS011;33538;48.432;11.350;2023-04-25T05:29:55;1.88;;;1.48;;
47778;SDS011;33538;48.432;11.350;2023-04-25T05:32:22;3.05;;;1.90;;
47778;SDS011;33538;48.432;11.350;2023-04-25T05:34:48;2.80;;;1.80;;
47778;SDS011;33538;48.432;11.350;2023-04-25T05:37:15;3.20;;;1.80;;
47778;SDS011;33538;48.432;11.350;2023-04-25T05:39:43;2.28;;;1.50;;
47778;SDS011;33538;48.432;11.350;2023-04-25T05:42:10;2.33;;;1.55;;
47778;SDS011;33538;48.432;11.350;2023-04-25T05:44:37;3.55;;;1.80;;
47778;SDS011;33538;48.432;11.350;2023-04-25T05:47:04;2.75;;;1.45;;
47778;SDS011;33538;48.432;11.350;2023-04-25T05:49:30;2.15;;;1.20;;
47778;SDS011;33538;48.432;11.350;2023-04-25T05:51:57;4.13;;;1.42;;
47778;SDS011;33538;48.432;11.350;2023-04-25T05:54:24;2.15;;;1.23;;
47778;SDS011;33538;48.432;11.350;2023-04-25T05:56:52;3.65;;;1.50;;
47778;SDS011;33538;48.432;11.350;2023-04-25T05:59:19;1.35;;;1.20;;
47778;SDS011;33538;48.432;11.350;2023-04-25T06:01:45;2.90;;;1.55;;
47778;SDS011;33538;48.432;11.350;2023-04-25T06:04:12;6.40;;;1.58;;
47778;SDS011;33538;48.432;11.350;2023-04-25T06:06:39;2.90;;;1.70;;
47778;SDS011;33538;48.432;11.350;2023-04-25T06:09:06;1.33;;;1.20;;
47778;SDS011;33538;48.432;11.350;2023-04-25T06:11:33;2.67;;;1.63;;
47778;SDS011;33538;48.432;11.350;2023-04-25T06:14:01;2.90;;;1.75;;
47778;SDS011;33538;48.432;11.350;2023-04-25T06:16:28;2.63;;;1.60;;
47778;SDS011;33538;48.432;11.350;2023-04-25T06:18:55;2.15;;;1.30;;
47778;SDS011;33538;48.432;11.350;2023-04-25T06:21:22;5.10;;;1.80;;
47778;SDS011;33538;48.432;11.350;2023-04-25T06:23:48;2.55;;;1.67;;
47778;SDS011;33538;48.432;11.350;2023-04-25T06:26:16;4.95;;;1.88;;
47778;SDS011;33538;48.432;11.350;2023-04-25T06:28:43;2.08;;;1.42;;
47778;SDS011;33538;48.432;11.350;2023-04-25T06:31:11;3.20;;;1.60;;
47778;SDS011;33538;48.432;11.350;2023-04-25T06:33:38;3.70;;;1.83;;
47778;SDS011;33538;48.432;11.350;2023-04-25T06:36:05;3.30;;;1.80;;
47778;SDS011;33538;48.432;11.350;2023-04-25T06:38:32;2.78;;;1.52;;
47778;SDS011;33538;48.432;11.350;2023-04-25T06:40:58;2.97;;;1.80;;
47778;SDS011;33538;48.432;11.350;2023-04-25T06:43:25;2.67;;;1.50;;
47778;SDS011;33538;48.432;11.350;2023-04-25T06:45:52;3.22;;;1.75;;
47778;SDS011;33538;48.432;11.350;2023-04-25T06:48:20;2.70;;;1.67;;
47778;SDS011;33538;48.432;11.350;2023-04-25T06:50:47;4.22;;;1.95;;
47778;SDS011;33538;48.432;11.350;2023-04-25T06:53:14;5.07;;;1.48;;
47778;SDS011;33538;48.432;11.350;2023-04-25T06:55:40;4.97;;;2.30;;
47778;SDS011;33538;48.432;11.350;2023-04-25T06:58:07;2.25;;;1.55;;
47778;SDS011;33538;48.432;11.350;2023-04-25T07:00:34;1.90;;;1.70;;
47778;SDS011;33538;48.432;11.350;2023-04-25T07:03:01;4.15;;;2.05;;
47778;SDS011;33538;48.432;11.350;2023-04-25T07:05:29;4.55;;;1.90;;
47778;SDS011;33538;48.432;11.350;2023-04-25T07:07:56;2.92;;;1.85;;
47778;SDS011;33538;48.432;11.350;2023-04-25T07:10:23;3.40;;;1.92;;
47778;SDS011;33538;48.432;11.350;2023-04-25T07:12:50;3.67;;;1.85;;
47778;SDS011;33538;48.432;11.350;2023-04-25T07:15:16;2.75;;;1.80;;
47778;SDS011;33538;48.432;11.350;2023-04-25T07:17:43;9.38;;;2.55;;
47778;SDS011;33538;48.432;11.350;2023-04-25T07:20:10;5.43;;;1.92;;
47778;SDS011;33538;48.432;11.350;2023-04-25T07:22:38;3.72;;;1.38;;
47778;SDS011;33538;48.432;11.350;2023-04-25T07:25:05;2.67;;;1.92;;
47778;SDS011;33538;48.432;11.350;2023-04-25T07:27:33;3.33;;;1.83;;
47778;SDS011;33538;48.432;11.350;2023-04-25T07:30:00;3.25;;;1.95;;
47778;SDS011;33538;48.432;11.350;2023-04-25T07:32:27;3.35;;;1.67;;
47778;SDS011;33538;48.432;11.350;2023-04-25T07:34:53;6.10;;;2.10;;
47778;SDS011;33538;48.432;11.350;2023-04-25T07:37:20;2.63;;;1.67;;
47778;SDS011;33538;48.432;11.350;2023-04-25T07:39:48;3.63;;;1.98;;
47778;SDS011;33538;48.432;11.350;2023-04-25T07:42:15;5.00;;;1.90;;
47778;SDS011;33538;48.432;11.350;2023-04-25T07:44:42;6.10;;;1.98;;
47778;SDS011;33538;48.432;11.350;2023-04-25T07:47:09;6.32;;;2.75;;
47778;SDS011;33538;48.432;11.350;2023-04-25T07:49:36;3.00;;;2.17;;
47778;SDS011;33538;48.432;11.350;2023-04-25T07:52:04;7.32;;;2.45;;
47778;SDS011;33538;48.432;11.350;2023-04-25T07:54:32;2.80;;;1.70;;
47778;SDS011;33538;48.432;11.350;2023-04-25T07:57:00;4.47;;;2.10;;
47778;SDS011;33538;48.432;11.350;2023-04-25T07:59:27;3.17;;;1.70;;
47778;SDS011;33538;48.432;11.350;2023-04-25T08:01:55;2.05;;;1.67;;
47778;SDS011;33538;48.432;11.350;2023-04-25T08:04:22;2.95;;;1.73;;
47778;SDS011;33538;48.432;11.350;2023-04-25T08:06:49;3.10;;;2.08;;
47778;SDS011;33538;48.432;11.350;2023-04-25T08:09:16;2.83;;;1.90;;
47778;SDS011;33538;48.432;11.350;2023-04-25T08:11:42;4.15;;;2.00;;
47778;SDS011;33538;48.432;11.350;2023-04-25T08:14:11;3.60;;;1.92;;
47778;SDS011;33538;48.432;11.350;2023-04-25T08:16:38;2.78;;;1.60;;
47778;SDS011;33538;48.432;11.350;2023-04-25T08:19:05;4.07;;;2.10;;
47778;SDS011;33538;48.432;11.350;2023-04-25T08:21:32;2.78;;;1.35;;
47778;SDS011;33538;48.432;11.350;2023-04-25T08:23:59;3.40;;;1.77;;
47778;SDS011;33538;48.432;11.350;2023-04-25T08:26:25;4.80;;;1.90;;
47778;SDS011;33538;48.432;11.350;2023-04-25T08:28:52;2.60;;;1.90;;
47778;SDS011;33538;48.432;11.350;2023-04-25T08:31:20;2.40;;;1.60;;
47778;SDS011;33538;48.432;11.350;2023-04-25T08:33:47;3.80;;;1.70;;
47778;SDS011;33538;48.432;11.350;2023-04-25T08:36:14;4.13;;;1.70;;
47778;SDS011;33538;48.432;11.350;2023-04-25T08:39:00;2.13;;;1.40;;
47778;SDS011;33538;48.432;11.350;2023-04-25T08:41:27;2.95;;;2.00;;
47778;SDS011;33538;48.432;11.350;2023-04-25T08:43:54;2.40;;;1.48;;
47778;SDS011;33538;48.432;11.350;2023-04-25T08:46:23;2.60;;;1.80;;
47778;SDS011;33538;48.432;11.350;2023-04-25T08:48:51;3.13;;;1.77;;
47778;SDS011;33538;48.432;11.350;2023-04-25T08:51:23;3.92;;;1.77;;
47778;SDS011;33538;48.432;11.350;2023-04-25T08:53:51;3.20;;;1.42;;
47778;SDS011;33538;48.432;11.350;2023-04-25T08:56:22;2.20;;;1.73;;
47778;SDS011;33538;48.432;11.350;2023-04-25T08:58:51;4.18;;;1.83;;
47778;SDS011;33538;48.432;11.350;2023-04-25T09:01:18;3.45;;;2.03;;
47778;SDS011;33538;48.432;11.350;2023-04-25T09:03:46;3.47;;;1.80;;
47778;SDS011;33538;48.432;11.350;2023-04-25T09:06:14;1.73;;;1.35;;
47778;SDS011;33538;48.432;11.350;2023-04-25T09:08:42;1.60;;;1.25;;
47778;SDS011;33538;48.432;11.350;2023-04-25T09:11:09;3.83;;;1.65;;
47778;SDS011;33538;48.432;11.350;2023-04-25T09:13:35;4.07;;;1.98;;
47778;SDS011;33538;48.432;11.350;2023-04-25T09:16:02;2.03;;;1.48;;
47778;SDS011;33538;48.432;11.350;2023-04-25T09:18:30;3.42;;;1.50;;
47778;SDS011;33538;48.432;11.350;2023-04-25T09:21:04;2.63;;;1.48;;
47778;SDS011;33538;48.432;11.350;2023-04-25T09:23:40;1.98;;;1.60;;
47778;SDS011;33538;48.432;11.350;2023-04-25T09:26:08;7.15;;;1.70;;
47778;SDS011;33538;48.432;11.350;2023-04-25T09:28:35;3.30;;;1.42;;
47778;SDS011;33538;48.432;11.350;2023-04-25T09:31:01;4.50;;;1.77;;
47778;SDS011;33538;48.432;11.350;2023-04-25T09:33:29;2.65;;;1.67;;
47778;SDS011;33538;48.432;11.350;2023-04-25T09:36:02;2.13;;;1.52;;
47778;SDS011;33538;48.432;11.350;2023-04-25T09:38:30;6.63;;;1.57;;
47778;SDS011;33538;48.432;11.350;2023-04-25T09:40:58;1.77;;;1.38;;
47778;SDS011;33538;48.432;11.350;2023-04-25T09:43:26;4.20;;;1.25;;
47778;SDS011;33538;48.432;11.350;2023-04-25T09:45:53;3.72;;;1.63;;
47778;SDS011;33538;48.432;11.350;2023-04-25T09:48:24;5.25;;;1.40;;
47778;SDS011;33538;48.432;11.350;2023-04-25T09:51:06;1.92;;;1.60;;
47778;SDS011;33538;48.432;11.350;2023-04-25T09:53:33;2.90;;;1.60;;
47778;SDS011;33538;48.432;11.350;2023-04-25T09:56:02;3.30;;;1.58;;
47778;SDS011;33538;48.432;11.350;2023-04-25T09:58:30;2.33;;;1.42;;
47778;SDS011;33538;48.432;11.350;2023-04-25T10:01:00;3.85;;;1.42;;
47778;SDS011;33538;48.432;11.350;2023-04-25T10:03:29;1.73;;;1.30;;
47778;SDS011;33538;48.432;11.350;2023-04-25T10:05:57;2.08;;;1.20;;
47778;SDS011;33538;48.432;11.350;2023-04-25T10:08:29;2.28;;;1.35;;
47778;SDS011;33538;48.432;11.350;2023-04-25T10:10:59;6.05;;;1.88;;
47778;SDS011;33538;48.432;11.350;2023-04-25T10:13:27;3.83;;;1.85;;
47778;SDS011;33538;48.432;11.350;2023-04-25T10:15:54;1.85;;;1.42;;
47778;SDS011;33538;48.432;11.350;2023-04-25T10:18:21;3.40;;;1.55;;
47778;SDS011;33538;48.432;11.350;2023-04-25T10:20:49;2.67;;;1.85;;
47778;SDS011;33538;48.432;11.350;2023-04-25T10:23:18;1.83;;;1.30;;
47778;SDS011;33538;48.432;11.350;2023-04-25T10:25:48;4.85;;;2.20;;
47778;SDS011;33538;48.432;11.350;2023-04-25T10:28:15;1.50;;;1.40;;
47778;SDS011;33538;48.432;11.350;2023-04-25T10:30:56;2.38;;;1.80;;
47778;SDS011;33538;48.432;11.350;2023-04-25T10:33:29;5.25;;;1.65;;
47778;SDS011;33538;48.432;11.350;2023-04-25T10:35:58;2.03;;;1.60;;
47778;SDS011;33538;48.432;11.350;2023-04-25T10:38:34;2.08;;;1.45;;
47778;SDS011;33538;48.432;11.350;2023-04-25T10:41:06;1.67;;;1.40;;
47778;SDS011;33538;48.432;11.350;2023-04-25T10:43:35;3.97;;;2.00;;
47778;SDS011;33538;48.432;11.350;2023-04-25T10:46:03;7.80;;;2.33;;
47778;SDS011;33538;48.432;11.350;2023-04-25T10:48:43;2.75;;;1.83;;
47778;SDS011;33538;48.432;11.350;2023-04-25T10:51:15;2.42;;;1.98;;
47778;SDS011;33538;48.432;11.350;2023-04-25T10:53:44;3.40;;;2.10;;
47778;SDS011;33538;48.432;11.350;2023-04-25T10:56:12;3.22;;;2.22;;
47778;SDS011;33538;48.432;11.350;2023-04-25T10:58:43;3.22;;;2.47;;
47778;SDS011;33538;48.432;11.350;2023-04-25T11:01:11;3.42;;;2.28;;
47778;SDS011;33538;48.432;11.350;2023-04-25T11:03:42;3.88;;;2.40;;
47778;SDS011;33538;48.432;11.350;2023-04-25T11:06:14;2.85;;;2.22;;
47778;SDS011;33538;48.432;11.350;2023-04-25T11:08:49;3.00;;;2.10;;
47778;SDS011;33538;48.432;11.350;2023-04-25T11:11:18;2.75;;;1.90;;
47778;SDS011;33538;48.432;11.350;2023-04-25T11:13:47;4.57;;;1.92;;
47778;SDS011;33538;48.432;11.350;2023-04-25T11:16:14;5.25;;;2.08;;
47778;SDS011;33538;48.432;11.350;2023-04-25T11:18:53;2.53;;;1.92;;
47778;SDS011;33538;48.432;11.350;2023-04-25T11:21:19;3.72;;;2.28;;
47778;SDS011;33538;48.432;11.350;2023-04-25T11:23:46;3.45;;;2.05;;
47778;SDS011;33538;48.432;11.350;2023-04-25T11:26:14;2.95;;;1.85;;
47778;SDS011;33538;48.432;11.350;2023-04-25T11:28:42;2.35;;;1.75;;
47778;SDS011;33538;48.432;11.350;2023-04-25T11:31:11;3.95;;;1.48;;
47778;SDS011;33538;48.432;11.350;2023-04-25T11:33:38;4.30;;;1.70;;
47778;SDS011;33538;48.432;11.350;2023-04-25T11:36:05;4.03;;;1.60;;
47778;SDS011;33538;48.432;11.350;2023-04-25T11:38:32;2.92;;;1.23;;
47778;SDS011;33538;48.432;11.350;2023-04-25T11:41:00;2.92;;;1.33;;
47778;SDS011;33538;48.432;11.350;2023-04-25T11:43:27;1.23;;;1.02;;
47778;SDS011;33538;48.432;11.350;2023-04-25T11:45:55;2.15;;;0.88;;
47778;SDS011;33538;48.432;11.350;2023-04-25T11:48:22;2.08;;;0.98;;
47778;SDS011;33538;48.432;11.350;2023-04-25T11:50:51;1.30;;;1.00;;
47778;SDS011;33538;48.432;11.350;2023-04-25T11:53:20;1.95;;;1.00;;
47778;SDS011;33538;48.432;11.350;2023-04-25T11:55:46;1.38;;;1.08;;
47778;SDS011;33538;48.432;11.350;2023-04-25T11:58:13;0.90;;;0.80;;
47778;SDS011;33538;48.432;11.350;2023-04-25T12:00:41;3.70;;;0.82;;
47778;SDS011;33538;48.432;11.350;2023-04-25T12:03:18;0.70;;;0.70;;
47778;SDS011;33538;48.432;11.350;2023-04-25T12:05:45;0.85;;;0.80;;
47778;SDS011;33538;48.432;11.350;2023-04-25T12:08:13;0.60;;;0.60;;
47778;SDS011;33538;48.432;11.350;2023-04-25T12:10:41;0.50;;;0.50;;
47778;SDS011;33538;48.432;11.350;2023-04-25T12:13:21;1.50;;;0.85;;
47778;SDS011;33538;48.432;11.350;2023-04-25T12:15:49;1.10;;;0.90;;
47778;SDS011;33538;48.432;11.350;2023-04-25T12:18:19;1.40;;;0.70;;
47778;SDS011;33538;48.432;11.350;2023-04-25T12:20:47;1.88;;;1.13;;
47778;SDS011;33538;48.432;11.350;2023-04-25T12:23:13;1.30;;;0.95;;
47778;SDS011;33538;48.432;11.350;2023-04-25T12:25:41;4.95;;;1.85;;
47778;SDS011;33538;48.432;11.350;2023-04-25T12:28:09;3.50;;;1.67;;
47778;SDS011;33538;48.432;11.350;2023-04-25T12:30:51;4.45;;;1.83;;
47778;SDS011;33538;48.432;11.350;2023-04-25T12:33:20;2.90;;;1.25;;
47778;SDS011;33538;48.432;11.350;2023-04-25T12:35:47;1.30;;;1.17;;
47778;SDS011;33538;48.432;11.350;2023-04-25T12:38:20;2.97;;;1.58;;
47778;SDS011;33538;48.432;11.350;2023-04-25T12:40:47;3.17;;;1.50;;
47778;SDS011;33538;48.432;11.350;2023-04-25T12:43:14;1.95;;;1.30;;
47778;SDS011;33538;48.432;11.350;2023-04-25T12:45:40;2.53;;;1.30;;
47778;SDS011;33538;48.432;11.350;2023-04-25T12:48:07;1.20;;;1.10;;
47778;SDS011;33538;48.432;11.350;2023-04-25T12:50:35;1.55;;;1.20;;
47778;SDS011;33538;48.432;11.350;2023-04-25T12:53:02;5.65;;;1.23;;
47778;SDS011;33538;48.432;11.350;2023-04-25T12:55:29;1.95;;;1.50;;
47778;SDS011;33538;48.432;11.350;2023-04-25T12:57:56;1.33;;;1.13;;
47778;SDS011;33538;48.432;11.350;2023-04-25T13:00:22;1.63;;;1.10;;
47778;SDS011;33538;48.432;11.350;2023-04-25T13:02:49;1.33;;;0.98;;
47778;SDS011;33538;48.432;11.350;2023-04-25T13:05:16;1.02;;;0.90;;
47778;SDS011;33538;48.432;11.350;2023-04-25T13:07:44;1.75;;;1.38;;
47778;SDS011;33538;48.432;11.350;2023-04-25T13:10:11;1.38;;;1.05;;
47778;SDS011;33538;48.432;11.350;2023-04-25T13:12:38;1.58;;;1.00;;
47778;SDS011;33538;48.432;11.350;2023-04-25T13:15:05;2.13;;;1.05;;
47778;SDS011;33538;48.432;11.350;2023-04-25T13:17:33;1.92;;;1.30;;
47778;SDS011;33538;48.432;11.350;2023-04-25T13:20:00;1.85;;;1.17;;
47778;SDS011;33538;48.432;11.350;2023-04-25T13:22:26;3.28;;;1.00;;
47778;SDS011;33538;48.432;11.350;2023-04-25T13:24:55;1.08;;;0.98;;
47778;SDS011;33538;48.432;11.350;2023-04-25T13:27:22;1.27;;;0.90;;
47778;SDS011;33538;48.432;11.350;2023-04-25T13:29:48;1.05;;;0.95;;
47778;SDS011;33538;48.432;11.350;2023-04-25T13:32:15;1.20;;;1.10;;
47778;SDS011;33538;48.432;11.350;2023-04-25T13:34:42;1.63;;;1.17;;
47778;SDS011;33538;48.432;11.350;2023-04-25T13:37:09;1.10;;;0.98;;
47778;SDS011;33538;48.432;11.350;2023-04-25T13:39:35;1.17;;;0.90;;
47778;SDS011;33538;48.432;11.350;2023-04-25T13:42:04;0.63;;;0.63;;
47778;SDS011;33538;48.432;11.350;2023-04-25T13:44:30;0.95;;;0.85;;
47778;SDS011;33538;48.432;11.350;2023-04-25T13:46:57;0.90;;;0.70;;
47778;SDS011;33538;48.432;11.350;2023-04-25T13:49:24;1.65;;;1.20;;
47778;SDS011;33538;48.432;11.350;2023-04-25T13:51:51;1.10;;;0.90;;
47778;SDS011;33538;48.432;11.350;2023-04-25T13:54:17;0.93;;;0.93;;
47778;SDS011;33538;48.432;11.350;2023-04-25T13:56:44;1.13;;;1.00;;
47778;SDS011;33538;48.432;11.350;2023-04-25T13:59:12;0.80;;;0.80;;
47778;SDS011;33538;48.432;11.350;2023-04-25T14:01:39;0.60;;;0.60;;
47778;SDS011;33538;48.432;11.350;2023-04-25T14:04:06;1.20;;;1.00;;
47778;SDS011;33538;48.432;11.350;2023-04-25T14:06:33;1.00;;;0.90;;
47778;SDS011;33538;48.432;11.350;2023-04-25T14:09:00;1.05;;;0.95;;
47778;SDS011;33538;48.432;11.350;2023-04-25T14:11:27;2.78;;;2.00;;
47778;SDS011;33538;48.432;11.350;2023-04-25T14:13:54;1.80;;;1.33;;
47778;SDS011;33538;48.432;11.350;2023-04-25T14:16:22;1.80;;;1.30;;
47778;SDS011;33538;48.432;11.350;2023-04-25T14:18:49;1.77;;;1.45;;
47778;SDS011;33538;48.432;11.350;2023-04-25T14:21:16;1.48;;;1.00;;
47778;SDS011;33538;48.432;11.350;2023-04-25T14:23:42;1.67;;;0.93;;
47778;SDS011;33538;48.432;11.350;2023-04-25T14:26:09;1.02;;;0.90;;
47778;SDS011;33538;48.432;11.350;2023-04-25T14:28:36;1.20;;;0.80;;
47778;SDS011;33538;48.432;11.350;2023-04-25T14:31:02;0.80;;;0.70;;
47778;SDS011;33538;48.432;11.350;2023-04-25T14:33:30;0.60;;;0.60;;
47778;SDS011;33538;48.432;11.350;2023-04-25T14:35:57;0.65;;;0.65;;